• Join FlightAware (Why Join?)
  • Login
  • US Flag 
02:49PM EDT


 

Airport Tracker/Info


-or-


 

Live Flight TrackerFlight Track Log ✈ SWA558 ✈ 17-Apr-2013 ✈ KRSW - KMDW

Flight Track Log - Related Links

Times and Time Zones

All times are in EDT time to prevent confusion due to time zone crossing. See the SWA558 flight status page for this flight to view local times or setup timezone preferences in your user account.

Time Position Orientation Groundspeed Altitude Reporting Facility
EDT Latitude Longitude Course Direction KTS MPH feet Rate Location/Type
12:25PM 26.6783 -81.7175 346° North 258 297 5,400  Level Miami Center
12:26PM 26.7408 -81.7203 358° North 265 305 8,200 2,400 Climbing Miami Center
12:27PM 26.8178 -81.7281 355° North 270 311 10,300 1,860 Climbing Miami Center
12:28PM 26.8956 -81.7708 334° Northwest 291 335 12,000 2,160 Climbing Miami Center
12:29PM 27.0758 -81.7570 340° North  Level FlightAware Approximate
12:29PM 26.9639 -81.8528 313° West 322 371 14,700  Level Miami Center
12:30PM 27.1799 -81.7950 347° North  Level FlightAware Approximate
12:30PM 27.0492 -81.9147 327° Northwest 342 394 16,800  Level Miami Center
12:31PM 27.2865 -81.8247 346° North  Level FlightAware Approximate
12:31PM 27.1553 -81.9242 355° North 356 410 17,000  Level Miami Center
12:32PM 27.2656 -81.9361 355° North 383 441 18,700 1,860 Climbing Miami Center
12:33PM 27.3778 -81.9481 355° North 398 458 20,800 2,100 Climbing Miami Center
12:34PM 27.4839 -81.9597 354° North 418 481 23,000 1,440 Climbing Miami Center
12:35PM 27.5983 -81.9717 355° North 420 483 23,700 1,380 Climbing Miami Center
12:36PM 27.7333 -81.9872 354° North 428 493 25,800 1,320 Climbing Miami Center
12:39PM 27.9906 -82.0206 353° North 441 507 28,000 840 Climbing Jacksonville Center
12:40PM 28.0953 -82.0833 332° Northwest 430 495 28,600 900 Climbing Jacksonville Center
12:41PM 28.2019 -82.1506 331° Northwest 425 489 29,900 1,620 Climbing Jacksonville Center
12:42PM 28.3089 -82.2206 330° Northwest 431 496 31,900 1,800 Climbing Jacksonville Center
12:43PM 28.4136 -82.2861 331° Northwest 436 502 33,500 1,500 Climbing Jacksonville Center
12:44PM 28.5181 -82.3517 331° Northwest 436 502 35,000 1,440 Climbing Jacksonville Center
12:45PM 28.6206 -82.4172 331° Northwest 426 490 36,400 1,380 Climbing Jacksonville Center
12:46PM 28.7314 -82.4806 333° Northwest 412 474 37,800 720 Climbing Jacksonville Center
12:47PM 28.8486 -82.5156 345° North 412 474 37,900 60 Climbing Jacksonville Center
12:48PM 28.9633 -82.5508 345° North 420 483 38,000  Climbing Jacksonville Center
12:49PM 29.0825 -82.5836 346° North 426 490 38,000  Level Jacksonville Center
12:50PM 29.1972 -82.6214 344° North 426 490 38,000  Level Jacksonville Center
12:51PM 29.3122 -82.6544 346° North 426 490 38,000  Level Jacksonville Center
12:52PM 29.4272 -82.6875 346° North 426 490 38,000  Level Jacksonville Center
12:53PM 29.5336 -82.7256 343° North 426 490 38,000  Level Jacksonville Center
12:54PM 29.6442 -82.7564 346° North 426 490 38,000  Level Jacksonville Center
12:55PM 29.7611 -82.7922 345° North 421 484 38,000  Level Jacksonville Center
12:56PM 29.8719 -82.8278 344° North 421 484 38,000  Level Jacksonville Center
12:57PM 29.9889 -82.8614 346° North 421 484 38,000  Level Jacksonville Center
12:58PM 30.1142 -82.8950 347° North 416 479 38,000  Level Jacksonville Center
12:59PM 30.2269 -82.9311 345° North 416 479 38,000  Level Jacksonville Center
01:00PM 30.3417 -82.9625 347° North 416 479 38,000  Level Jacksonville Center
01:01PM 30.4544 -82.9986 345° North 416 479 38,000  Level Jacksonville Center
01:02PM 30.5567 -83.0300 345° North 416 479 38,000  Level Jacksonville Center
01:03PM 30.6839 -83.0689 345° North 416 479 38,000  Level Jacksonville Center
01:04PM 30.7903 -83.1031 345° North 421 484 38,000  Level Jacksonville Center
01:05PM 30.9011 -83.1394 344° North 421 484 38,000  Level Jacksonville Center
01:06PM 31.0200 -83.1761 345° North 421 484 38,000  Level Jacksonville Center
01:07PM 31.1367 -83.2131 345° North 421 484 38,000  Level Jacksonville Center
01:08PM 31.2536 -83.2497 345° North 426 490 38,000  Level Jacksonville Center
01:10PM 31.5108 -83.3300 345° North 450 518 38,000  Level Atlanta Center
01:11PM 31.6300 -83.3656 346° North 445 512 38,000  Level Atlanta Center
01:12PM 31.7492 -83.4039 345° North 440 506 38,000  Level Atlanta Center
01:13PM 31.8683 -83.4422 345° North 440 506 38,000  Level Atlanta Center
01:14PM 32.0000 -83.4828 345° North 435 501 38,000  Level Atlanta Center
01:15PM 32.1150 -83.5214 344° North 435 501 38,000  Level Atlanta Center
01:16PM 32.2319 -83.5575 345° North 435 501 38,000  Level Atlanta Center
01:17PM 32.3469 -83.5939 345° North 435 501 38,000  Level Atlanta Center
01:18PM 32.4619 -83.6328 344° North 435 501 38,000  Level Atlanta Center
01:19PM 32.5789 -83.6717 344° North 435 501 38,000  Level Atlanta Center
01:20PM 32.6939 -83.7081 345° North 430 495 38,000  Level Atlanta Center
01:21PM 32.8086 -83.7447 345° North 430 495 38,000  Level Atlanta Center
01:22PM 32.9236 -83.7839 344° North 430 495 38,000  Level Atlanta Center
01:23PM 33.0364 -83.8208 345° North 425 489 38,000  Level Atlanta Center
01:24PM 33.1469 -83.8578 344° North 417 480 38,000  Level Atlanta Center
01:25PM 33.2619 -83.8922 346° North 422 486 38,000  Level Atlanta Center
01:26PM 33.3747 -83.9294 345° North 422 486 38,000  Level Atlanta Center
01:27PM 33.4894 -83.9667 345° North 417 480 38,000  Level Atlanta Center
01:28PM 33.6022 -84.0039 345° North 422 486 38,000  Level Atlanta Center
01:29PM 33.7169 -84.0389 346° North 422 486 38,000  Level Atlanta Center
01:30PM 33.8339 -84.0789 344° North 428 493 38,000  Level Atlanta Center
01:31PM 33.9508 -84.1164 345° North 428 493 38,000  Level Atlanta Center
01:32PM 34.0656 -84.1542 345° North 433 498 38,000  Level Atlanta Center
01:33PM 34.1825 -84.1944 344° North 433 498 38,000  Level Atlanta Center
01:34PM 34.2972 -84.2325 345° North 433 498 38,000  Level Atlanta Center
01:35PM 34.4139 -84.2731 344° North 433 498 38,000  Level Atlanta Center
01:36PM 34.5286 -84.3086 346° North 433 498 38,000  Level Atlanta Center
01:37PM 34.6433 -84.3494 344° North 433 498 38,000  Level Atlanta Center
01:38PM 34.7475 -84.3878 343° North 433 498 38,000  Level Atlanta Center
01:39PM 34.8642 -84.4261 345° North 433 498 38,000  Level Atlanta Center
01:40PM 34.9853 -84.4722 343° North 427 491 38,000  Level Atlanta Center
01:41PM 35.1019 -84.5108 345° North 421 484 38,000  Level Atlanta Center
01:42PM 35.2144 -84.5472 345° North 421 484 38,000  Level Atlanta Center
01:43PM 35.3311 -84.5886 344° North 421 484 38,000  Level Atlanta Center
01:44PM 35.4414 -84.6250 345° North 421 484 38,000  Level Atlanta Center
01:45PM 35.5539 -84.6642 344° North 421 484 38,000  Level Atlanta Center
01:46PM 35.6644 -84.7033 344° North 421 484 38,000  Level Atlanta Center
01:47PM 35.7767 -84.7375 346° North 421 484 38,000  Level Atlanta Center
01:48PM 35.8911 -84.7897 340° North 421 484 38,000  Level Atlanta Center
01:50PM 36.1225 -84.9575 330° Northwest 418 481 38,000  Level Indianapolis Center
01:51PM 36.2389 -84.9942 346° North 430 495 38,000  Level Indianapolis Center
01:52PM 36.3594 -85.0258 348° North 439 505 38,000  Level Indianapolis Center
01:53PM 36.4806 -85.0525 350° North 441 507 38,000  Level Indianapolis Center
01:54PM 36.6003 -85.0803 349° North 438 504 38,000  Level Indianapolis Center
01:55PM 36.7431 -85.1153 349° North 436 502 38,000  Level Indianapolis Center
01:56PM 36.8631 -85.1442 349° North 439 505 38,000  Level Indianapolis Center
01:57PM 36.9836 -85.1719 350° North 438 504 38,000  Level Indianapolis Center
01:58PM 37.1125 -85.2019 349° North 438 504 38,000 -420 Level Indianapolis Center
01:59PM 37.2314 -85.2292 350° North 432 497 37,200 -840 Descending Indianapolis Center
02:00PM 37.3458 -85.2581 349° North 422 486 36,300 -600 Descending Indianapolis Center
02:01PM 37.4642 -85.2858 349° North 430 495 36,000 -180 Descending Indianapolis Center
02:03PM 37.5803 -85.3156 349° North 427 491 36,000  Level Indianapolis Center
02:04PM 37.6972 -85.3436 349° North 425 489 36,000  Level Indianapolis Center
02:05PM 37.8144 -85.3717 349° North 428 493 36,000  Level Indianapolis Center
02:06PM 37.9328 -85.4006 349° North 428 493 36,000  Level Indianapolis Center
02:07PM 38.0503 -85.4292 349° North 430 495 36,000  Level Indianapolis Center
02:08PM 38.1892 -85.4633 349° North 423 487 36,000  Level Indianapolis Center
02:09PM 38.3064 -85.4917 349° North 427 491 36,000  Level Indianapolis Center
02:10PM 38.4242 -85.5206 349° North 429 494 36,000  Level Indianapolis Center
02:11PM 38.5419 -85.5503 349° North 431 496 36,000  Level Indianapolis Center
02:12PM 38.6600 -85.5794 349° North 432 497 36,000  Level Indianapolis Center
02:13PM 38.7794 -85.6097 349° North 436 502 36,000  Level Indianapolis Center
02:14PM 38.8989 -85.6383 349° North 435 501 36,000 -660 Level Indianapolis Center
02:15PM 39.0175 -85.6683 349° North 435 501 34,700 -1,860 Descending Indianapolis Center
02:16PM 39.1581 -85.7047 349° North 428 493 32,300 -2,100 Descending Indianapolis Center
02:17PM 39.2681 -85.7317 349° North 409 471 30,400 -1,140 Descending Indianapolis Center
02:18PM 39.3772 -85.7597 349° North 402 463 30,000 -540 Descending Indianapolis Center
02:19PM 39.4908 -85.7894 349° North 409 471 29,400 -840 Descending Indianapolis Center
02:20PM 39.6008 -85.8169 349° North 407 468 28,400 -1,080 Descending Indianapolis Center
02:21PM 39.7217 -85.8481 349° North 404 465 27,300 -1,020 Descending Indianapolis Center
02:22PM 39.8311 -85.8767 349° North 399 459 26,300 -1,020 Descending Indianapolis Center
02:23PM 39.9381 -85.9036 349° North 392 451 25,300 -1,140 Descending Indianapolis Center
02:24PM 40.0447 -85.9308 349° North 387 445 24,000 -660 Descending Indianapolis Center
02:25PM 40.1564 -85.9597 349° North 382 440 24,000 -240 Level Indianapolis Center
02:26PM 40.2272 -85.9786 348° North 379 436 23,600 -600 Descending Chicago Center
02:27PM 40.3286 -86.0058 348° North 372 428 23,000 -600 Descending Chicago Center
02:28PM 40.4289 -86.0314 349° North 368 423 22,400 -1,080 Descending Chicago Center
02:29PM 40.5264 -86.0575 348° North 358 412 20,800 -1,380 Descending Chicago Center
02:30PM 40.6256 -86.0553 North 357 411 19,700 -1,440 Descending Chicago Center
02:31PM 40.7222 -86.0522 North 349 402 17,900 -1,620 Descending Chicago Center
02:32PM 40.8169 -86.0508 North 340 391 16,400 -1,620 Descending Chicago Center
02:33PM 40.9144 -86.0503 360° North 349 402 14,600 -1,380 Descending Chicago Center
02:34PM 40.9792 -86.1267 318° Northwest 329 379 13,600 -1,080 Descending Chicago Center
02:35PM 41.0094 -86.2650 286° West 326 375 12,400 -1,140 Descending Chicago Center
02:36PM 41.0383 -86.3792 289° West 327 376 11,300 -960 Descending Chicago Center
02:37PM 41.0939 -86.4803 306° West 338 389 10,500 -660 Descending Chicago Center
02:38PM 41.1475 -86.5806 305° West 335 386 10,000 -300 Descending Chicago Center
02:39PM 41.2011 -86.6806 305° West 334 384 10,000  Level Chicago Center
02:40PM 41.2683 -86.7783 312° West 336 387 10,000  Level Chicago Center
02:41PM 41.3289 -86.8708 311° West 334 384 10,000 -180 Level Chicago Center
02:42PM 41.3869 -86.9597 311° West 324 373 9,700 -1,020 Descending Chicago Center
02:43PM 41.4419 -87.0456 311° West 310 357 8,000 -1,620 Descending Chicago Center
02:44PM 41.4956 -87.1306 310° West 306 352 6,400 -1,080 Descending Chicago Center
02:45PM 41.5144 -87.2411 283° West 272 313 5,900 -660 Descending Chicago Center
02:46PM 41.4969 -87.3297 255° West 252 290 5,100 -540 Descending Chicago Center
02:47PM 41.5053 -87.4239 277° West 256 295 4,900 -180 Descending Chicago Center
02:48PM 41.5236 -87.5156 285° West 258 297 4,800 -540 Descending Chicago Center
02:49PM 41.5419 -87.6114 284° West 263 303 3,900 -480 Descending Chicago Center
02:50PM 41.5597 -87.7047 284° West 264 304 3,900  Level Chicago Center
02:51PM 41.5761 -87.7792 286° West 233 268 3,900  Level Chicago Center
02:52PM 41.5947 -87.8692 285° West 218 251 3,900 -540 Level Chicago Center
02:53PM 41.6156 -87.9328 294° West 212 244 2,900 -780 Descending Chicago Center
02:54PM 41.6625 -87.9089 21° North 203 234 2,400 -300 Descending Chicago Center
02:55PM 41.6972 -87.8633 44° Northeast 188 216 2,400 -240 Level Chicago Center
02:57PM 41.7319 -87.8200 43° Northeast 179 206 2,000 -540 Descending Chicago Center
02:58PM 41.7567 -87.7886 43° Northeast 148 170 1,300 -540 Descending Chicago Center
02:59PM 41.7864 -87.7519 43° Northeast 139 160 1,000 -300 Descending Chicago Center